createdAt,value
2023-01-09T00:00:40.360Z,88.95
2023-01-09T00:01:45.451Z,88.60
2023-01-09T00:02:47.363Z,90.94
2023-01-09T00:03:49.019Z,92.04
2023-01-09T00:04:50.585Z,93.13
2023-01-09T00:05:52.581Z,92.48
2023-01-09T00:06:54.438Z,92.55
2023-01-09T00:07:56.087Z,92.48
2023-01-09T00:08:57.911Z,92.28
2023-01-09T00:09:59.450Z,92.83
2023-01-09T00:11:01.084Z,92.60
2023-01-09T00:12:03.180Z,92.55
2023-01-09T00:13:04.742Z,92.26
2023-01-09T00:14:06.264Z,91.78
2023-01-09T00:15:08.655Z,91.41
2023-01-09T00:16:10.400Z,91.68
2023-01-09T00:17:11.929Z,90.79
2023-01-09T00:18:13.458Z,90.94
2023-01-09T00:19:15.017Z,90.08
2023-01-09T00:20:17.155Z,89.87
2023-01-09T00:21:19.243Z,89.29
2023-01-09T00:22:20.938Z,88.81
2023-01-09T00:23:22.515Z,87.62
2023-01-09T00:24:24.083Z,88.10
2023-01-09T00:25:25.655Z,87.88
2023-01-09T00:26:27.268Z,87.64
2023-01-09T00:27:32.873Z,87.27
2023-01-09T00:28:35.417Z,86.86
2023-01-09T00:29:36.995Z,86.71
2023-01-09T00:30:38.684Z,85.95
2023-01-09T00:31:40.445Z,86.32
2023-01-09T00:32:41.998Z,86.26
2023-01-09T00:33:50.424Z,86.04
2023-01-09T00:34:52.004Z,85.54
2023-01-09T00:35:53.575Z,85.49
2023-01-09T00:36:56.417Z,85.09
2023-01-09T00:37:57.999Z,84.26
2023-01-09T00:38:59.908Z,85.14
2023-01-09T00:40:01.435Z,84.23
2023-01-09T00:41:07.939Z,84.41
2023-01-09T00:42:17.133Z,84.31
2023-01-09T00:43:20.137Z,84.28
2023-01-09T00:44:35.623Z,84.44
2023-01-09T00:45:37.263Z,84.35
2023-01-09T00:46:42.971Z,84.51
2023-01-09T00:47:52.081Z,84.33
2023-01-09T00:48:53.760Z,84.59
2023-01-09T00:49:58.917Z,84.63
2023-01-09T00:51:00.663Z,84.37
2023-01-09T00:52:04.396Z,84.01
2023-01-09T00:53:10.943Z,84.39
2023-01-09T00:54:16.403Z,84.78
2023-01-09T00:55:18.271Z,89.69
2023-01-09T00:56:20.984Z,94.14
2023-01-09T00:57:22.674Z,94.85
2023-01-09T00:58:24.360Z,93.73
2023-01-09T00:59:28.266Z,91.58
2023-01-09T01:00:30.264Z,90.32
2023-01-09T01:01:32.260Z,89.09
2023-01-09T01:02:33.891Z,88.78
2023-01-09T01:03:35.700Z,88.10
2023-01-09T01:04:56.211Z,87.04
2023-01-09T01:06:16.347Z,86.95
2023-01-09T01:07:53.390Z,87.04
2023-01-09T01:08:56.017Z,85.76
2023-01-09T01:09:57.586Z,85.59
2023-01-09T01:11:03.406Z,84.03
2023-01-09T01:12:07.259Z,83.77
2023-01-09T01:13:09.593Z,83.79
2023-01-09T01:14:11.145Z,84.17
2023-01-09T01:15:13.591Z,83.30
2023-01-09T01:16:15.234Z,83.71
2023-01-09T01:17:16.758Z,83.65
2023-01-09T01:18:18.414Z,83.91
2023-01-09T01:19:19.982Z,83.71
2023-01-09T01:20:21.855Z,83.40
2023-01-09T01:21:23.416Z,84.19
2023-01-09T01:22:24.946Z,84.97
2023-01-09T01:23:26.728Z,85.18
2023-01-09T01:24:28.377Z,85.66
2023-01-09T01:25:29.958Z,85.61
2023-01-09T01:26:31.656Z,85.64
2023-01-09T01:27:33.342Z,85.30
2023-01-09T01:28:35.027Z,85.05
2023-01-09T01:29:36.651Z,85.33
2023-01-09T01:30:42.655Z,85.61
2023-01-09T01:31:44.252Z,85.34
2023-01-09T01:32:46.158Z,85.22
2023-01-09T01:33:47.733Z,85.32
2023-01-09T01:34:49.288Z,85.37
2023-01-09T01:35:50.873Z,84.71
2023-01-09T01:36:52.395Z,84.56
2023-01-09T01:37:53.956Z,83.94
2023-01-09T01:38:55.585Z,84.37
2023-01-09T01:39:57.422Z,84.47
2023-01-09T01:40:59.825Z,83.99
2023-01-09T01:42:03.985Z,83.81
2023-01-09T01:43:05.639Z,84.07
2023-01-09T01:44:45.586Z,84.02
2023-01-09T01:45:47.189Z,83.52
2023-01-09T01:46:48.793Z,84.09
2023-01-09T01:47:57.709Z,83.47
2023-01-09T01:49:12.032Z,83.81
2023-01-09T01:50:25.837Z,83.78
2023-01-09T01:51:30.872Z,84.23
2023-01-09T01:52:34.257Z,84.60
2023-01-09T01:53:46.057Z,85.11
2023-01-09T01:54:48.940Z,84.74
2023-01-09T01:55:59.407Z,86.23
2023-01-09T01:57:04.535Z,86.88
2023-01-09T01:58:09.993Z,86.63
2023-01-09T01:59:23.375Z,86.25
2023-01-09T02:00:30.831Z,85.71
2023-01-09T02:01:33.843Z,86.31
2023-01-09T02:02:35.573Z,86.00
2023-01-09T02:03:39.731Z,85.65
2023-01-09T02:04:41.445Z,85.55
2023-01-09T02:05:43.829Z,85.32
2023-01-09T02:06:48.454Z,85.40
2023-01-09T02:07:50.080Z,85.25
2023-01-09T02:08:51.655Z,85.40
2023-01-09T02:09:54.002Z,85.38
2023-01-09T02:10:56.455Z,85.13
2023-01-09T02:11:58.449Z,85.11
2023-01-09T02:13:00.935Z,84.76
2023-01-09T02:14:03.203Z,84.25
2023-01-09T02:15:09.900Z,84.01
2023-01-09T02:16:17.599Z,83.58
2023-01-09T02:17:31.399Z,83.14
2023-01-09T02:18:54.207Z,83.44
2023-01-09T02:20:20.297Z,83.16
2023-01-09T02:21:29.473Z,82.70
2023-01-09T02:23:03.485Z,82.21
2023-01-09T02:24:13.660Z,81.75
2023-01-09T02:25:48.366Z,81.50
2023-01-09T02:27:09.436Z,81.87
2023-01-09T02:28:22.914Z,81.38
2023-01-09T02:29:49.812Z,81.06
2023-01-09T02:31:08.012Z,81.35
2023-01-09T02:32:21.054Z,80.92
2023-01-09T02:33:50.737Z,81.42
2023-01-09T02:34:59.908Z,80.99
2023-01-09T02:36:16.690Z,81.39
2023-01-09T02:37:35.807Z,81.22
2023-01-09T02:38:48.724Z,81.44
2023-01-09T02:39:54.855Z,80.42
2023-01-09T02:41:05.364Z,80.87
2023-01-09T02:42:24.314Z,80.91
2023-01-09T02:43:27.030Z,81.06
2023-01-09T02:44:33.948Z,81.26
2023-01-09T02:45:35.492Z,81.40
2023-01-09T02:46:37.267Z,80.93
2023-01-09T02:47:40.758Z,80.71
2023-01-09T02:48:45.241Z,80.77
2023-01-09T02:49:53.675Z,81.00
2023-01-09T02:51:17.809Z,82.08
2023-01-09T02:52:41.275Z,83.34
2023-01-09T02:54:12.177Z,82.12
2023-01-09T02:55:17.841Z,81.71
2023-01-09T02:56:56.939Z,80.47
2023-01-09T02:58:10.283Z,80.84
2023-01-09T02:59:21.706Z,81.67
2023-01-09T03:00:35.442Z,82.22
2023-01-09T03:01:44.954Z,83.04
2023-01-09T03:02:54.009Z,83.53
2023-01-09T03:04:30.687Z,84.74
2023-01-09T03:05:47.633Z,85.02
2023-01-09T03:07:38.215Z,86.09
2023-01-09T03:08:45.485Z,86.02
2023-01-09T03:09:51.224Z,86.63
2023-01-09T03:10:52.729Z,87.39
2023-01-09T03:12:01.389Z,87.31
2023-01-09T03:13:03.599Z,86.80
2023-01-09T03:14:11.592Z,87.76
2023-01-09T03:15:15.353Z,89.21
2023-01-09T03:16:21.689Z,90.06
2023-01-09T03:17:29.960Z,90.24
2023-01-09T03:18:33.015Z,91.58
2023-01-09T03:19:35.959Z,92.63
2023-01-09T03:20:38.851Z,92.50
2023-01-09T03:21:42.187Z,92.08
2023-01-09T03:22:57.995Z,91.64
2023-01-09T03:24:02.152Z,92.29
2023-01-09T03:25:03.804Z,91.76
2023-01-09T03:26:10.262Z,91.19
2023-01-09T03:27:11.885Z,91.68
2023-01-09T03:28:28.025Z,92.20
2023-01-09T03:29:29.757Z,93.13
2023-01-09T03:30:33.761Z,93.17
2023-01-09T03:31:35.363Z,92.16
2023-01-09T03:32:36.973Z,91.81
2023-01-09T03:33:38.550Z,91.42
2023-01-09T03:34:40.103Z,90.68
2023-01-09T03:35:41.618Z,90.51
2023-01-09T03:36:43.251Z,89.96
2023-01-09T03:37:44.803Z,90.45
2023-01-09T03:38:46.399Z,89.44
2023-01-09T03:39:47.948Z,88.66
2023-01-09T03:40:49.495Z,88.52
2023-01-09T03:41:51.045Z,87.79
2023-01-09T03:42:52.648Z,86.98
2023-01-09T03:43:54.188Z,86.44
2023-01-09T03:44:55.712Z,86.08
2023-01-09T03:45:57.336Z,85.52
2023-01-09T03:46:58.947Z,83.62
2023-01-09T03:48:00.476Z,83.11
2023-01-09T03:49:02.012Z,82.76
2023-01-09T03:50:03.982Z,82.05
2023-01-09T03:51:05.734Z,82.44
2023-01-09T03:52:07.370Z,82.22
2023-01-09T03:53:08.959Z,81.74
2023-01-09T03:54:10.475Z,82.29
2023-01-09T03:55:13.305Z,82.32
2023-01-09T03:56:15.853Z,82.79
2023-01-09T03:57:17.792Z,82.39
2023-01-09T03:58:20.508Z,81.88
2023-01-09T03:59:22.154Z,81.18
2023-01-09T04:00:23.855Z,81.07
2023-01-09T04:01:25.720Z,80.85
2023-01-09T04:02:27.322Z,80.27
2023-01-09T04:03:28.962Z,80.99
2023-01-09T04:04:30.594Z,81.59
2023-01-09T04:05:32.151Z,81.62
2023-01-09T04:06:33.765Z,82.42
2023-01-09T04:07:35.380Z,83.13
2023-01-09T04:08:36.942Z,83.67
2023-01-09T04:09:38.466Z,84.12
2023-01-09T04:10:40.337Z,84.27
2023-01-09T04:11:41.858Z,85.10
2023-01-09T04:12:43.433Z,85.68
2023-01-09T04:13:45.225Z,85.50
2023-01-09T04:14:46.785Z,85.65
2023-01-09T04:15:48.559Z,87.03
2023-01-09T04:16:50.173Z,88.16
2023-01-09T04:17:51.772Z,88.60
2023-01-09T04:18:53.291Z,89.71
2023-01-09T04:19:54.820Z,91.05
2023-01-09T04:20:56.393Z,91.70
2023-01-09T04:21:57.960Z,91.27
2023-01-09T04:22:59.885Z,91.25
2023-01-09T04:24:02.958Z,91.49
2023-01-09T04:25:05.130Z,91.85
2023-01-09T04:26:07.932Z,92.04
2023-01-09T04:27:09.486Z,92.36
2023-01-09T04:28:11.155Z,92.26
2023-01-09T04:29:12.678Z,93.26
2023-01-09T04:30:14.849Z,93.38
2023-01-09T04:31:16.866Z,94.12
2023-01-09T04:32:18.504Z,94.02
2023-01-09T04:33:20.087Z,94.89
2023-01-09T04:34:25.666Z,94.83
2023-01-09T04:35:27.181Z,95.39
2023-01-09T04:36:28.856Z,96.13
2023-01-09T04:37:30.424Z,96.27
2023-01-09T04:38:31.979Z,96.28
2023-01-09T04:39:33.600Z,96.30
2023-01-09T04:40:35.157Z,96.76
2023-01-09T04:41:51.959Z,96.83
2023-01-09T04:42:53.488Z,97.66
2023-01-09T04:43:55.064Z,98.16
2023-01-09T04:44:56.629Z,98.70
2023-01-09T04:45:58.251Z,99.05
2023-01-09T04:46:59.864Z,99.13
2023-01-09T04:48:01.412Z,99.33
2023-01-09T04:49:03.098Z,99.21
2023-01-09T04:50:05.094Z,98.95
2023-01-09T04:51:06.615Z,97.85
2023-01-09T04:52:08.119Z,97.16
2023-01-09T04:53:09.751Z,96.06
2023-01-09T04:54:11.616Z,95.44
2023-01-09T04:55:13.216Z,95.28
2023-01-09T04:56:14.799Z,94.47
2023-01-09T04:57:16.631Z,93.81
2023-01-09T04:58:18.185Z,93.78
2023-01-09T04:59:19.785Z,94.58
2023-01-09T05:00:21.405Z,94.50
2023-01-09T05:01:23.776Z,95.78
2023-01-09T05:02:25.422Z,96.19
2023-01-09T05:03:26.968Z,95.00
2023-01-09T05:04:28.586Z,95.36
2023-01-09T05:05:30.208Z,95.13
2023-01-09T05:06:31.890Z,94.47
2023-01-09T05:07:34.253Z,93.72
2023-01-09T05:08:35.851Z,93.42
2023-01-09T05:09:37.385Z,92.84
2023-01-09T05:10:38.902Z,92.55
2023-01-09T05:11:40.603Z,92.80
2023-01-09T05:12:42.249Z,93.46
2023-01-09T05:13:43.823Z,94.27
2023-01-09T05:14:45.509Z,97.83
2023-01-09T05:15:47.052Z,99.57
2023-01-09T05:16:48.786Z,97.64
2023-01-09T05:17:53.860Z,97.02
2023-01-09T05:18:58.243Z,95.86
2023-01-09T05:20:01.166Z,93.43
2023-01-09T05:21:03.231Z,91.92
2023-01-09T05:22:05.241Z,90.01
2023-01-09T05:23:06.768Z,90.17
2023-01-09T05:24:08.638Z,89.09
2023-01-09T05:25:10.377Z,87.65
2023-01-09T05:26:11.910Z,87.84
2023-01-09T05:27:13.536Z,87.07
2023-01-09T05:28:15.146Z,87.01
2023-01-09T05:29:16.708Z,88.32
2023-01-09T05:30:18.596Z,91.08
2023-01-09T05:31:20.711Z,92.31
2023-01-09T05:32:22.495Z,92.59
2023-01-09T05:33:24.311Z,93.93
2023-01-09T05:34:26.231Z,94.62
2023-01-09T05:35:27.987Z,94.85
2023-01-09T05:36:29.814Z,94.84
2023-01-09T05:37:31.469Z,95.43
2023-01-09T05:38:33.021Z,95.58
2023-01-09T05:39:34.577Z,94.64
2023-01-09T05:40:40.369Z,95.45
2023-01-09T05:41:42.212Z,95.81
2023-01-09T05:42:44.736Z,95.92
2023-01-09T05:43:46.339Z,96.93
2023-01-09T05:44:47.914Z,96.86
2023-01-09T05:45:49.546Z,97.46
2023-01-09T05:46:51.308Z,98.16
2023-01-09T05:47:53.048Z,97.57
2023-01-09T05:48:54.615Z,97.70
2023-01-09T05:49:59.054Z,97.88
2023-01-09T05:51:00.639Z,97.89
2023-01-09T05:52:02.164Z,98.45
2023-01-09T05:53:03.737Z,98.96
2023-01-09T05:54:07.454Z,98.67
2023-01-09T05:55:11.975Z,99.09
2023-01-09T05:56:13.667Z,98.67
2023-01-09T05:57:15.320Z,99.30
2023-01-09T05:58:16.868Z,99.03
2023-01-09T05:59:18.590Z,99.32
2023-01-09T06:00:20.317Z,99.43
2023-01-09T06:01:23.722Z,100.00
2023-01-09T06:02:25.756Z,100.00
2023-01-09T06:03:27.540Z,100.00
2023-01-09T06:04:30.060Z,100.00
2023-01-09T06:05:31.767Z,100.00
2023-01-09T06:06:33.328Z,100.00
2023-01-09T06:07:39.532Z,100.00
2023-01-09T06:08:41.195Z,100.00
2023-01-09T06:09:42.718Z,100.00
2023-01-09T06:10:46.071Z,100.00
2023-01-09T06:11:47.670Z,100.00
2023-01-09T06:12:50.992Z,100.00
2023-01-09T06:13:52.580Z,100.00
2023-01-09T06:14:54.193Z,100.00
2023-01-09T06:15:55.890Z,100.00
2023-01-09T06:16:57.436Z,100.00
2023-01-09T06:17:59.001Z,100.00
2023-01-09T06:19:00.563Z,100.00
2023-01-09T06:20:02.245Z,100.00
2023-01-09T06:21:04.033Z,100.00
2023-01-09T06:22:05.659Z,100.00
2023-01-09T06:23:07.235Z,100.00
2023-01-09T06:24:08.973Z,100.00
2023-01-09T06:25:10.936Z,100.00
2023-01-09T06:26:12.543Z,100.00
2023-01-09T06:27:14.255Z,100.00
2023-01-09T06:28:15.776Z,100.00
2023-01-09T06:29:17.524Z,100.00
2023-01-09T06:30:19.953Z,100.00
2023-01-09T06:31:25.504Z,100.00
2023-01-09T06:32:27.112Z,98.29
2023-01-09T06:33:28.723Z,97.49
2023-01-09T06:34:30.327Z,96.39
2023-01-09T06:35:31.917Z,95.69
2023-01-09T06:36:33.536Z,94.84
2023-01-09T06:37:35.165Z,94.33
2023-01-09T06:38:36.746Z,93.01
2023-01-09T06:39:38.297Z,92.45
2023-01-09T06:40:39.840Z,92.75
2023-01-09T06:41:41.642Z,92.88
2023-01-09T06:42:47.542Z,92.44
2023-01-09T06:43:49.106Z,92.29
2023-01-09T06:44:50.674Z,91.78
2023-01-09T06:45:52.480Z,90.81
2023-01-09T06:46:54.020Z,90.72
2023-01-09T06:47:55.667Z,89.19
2023-01-09T06:48:57.308Z,89.97
2023-01-09T06:49:58.865Z,90.38
2023-01-09T06:51:00.438Z,90.42
2023-01-09T06:52:05.694Z,90.52
2023-01-09T06:53:08.064Z,90.48
2023-01-09T06:54:09.860Z,90.14
2023-01-09T06:55:11.465Z,89.54
2023-01-09T06:56:13.069Z,89.36
2023-01-09T06:57:16.420Z,88.66
2023-01-09T06:58:18.307Z,88.11
2023-01-09T06:59:19.916Z,87.20
2023-01-09T07:00:21.954Z,87.26
2023-01-09T07:01:23.780Z,86.88
2023-01-09T07:02:25.540Z,86.80
2023-01-09T07:03:27.088Z,86.43
2023-01-09T07:04:28.707Z,85.07
2023-01-09T07:05:31.303Z,85.18
2023-01-09T07:06:33.253Z,85.55
2023-01-09T07:07:34.988Z,85.10
2023-01-09T07:08:36.530Z,85.42
2023-01-09T07:09:38.157Z,85.94
2023-01-09T07:10:39.661Z,84.70
2023-01-09T07:11:41.599Z,85.13
2023-01-09T07:12:43.224Z,85.99
2023-01-09T07:13:44.809Z,86.07
2023-01-09T07:14:46.392Z,85.65
2023-01-09T07:15:49.735Z,85.98
2023-01-09T07:16:51.488Z,85.38
2023-01-09T07:17:54.260Z,84.05
2023-01-09T07:18:55.928Z,83.43
2023-01-09T07:19:57.576Z,84.29
2023-01-09T07:20:59.208Z,84.70
2023-01-09T07:22:00.757Z,84.51
2023-01-09T07:23:02.431Z,85.24
2023-01-09T07:24:04.077Z,85.18
2023-01-09T07:25:05.926Z,85.51
2023-01-09T07:26:07.502Z,85.75
2023-01-09T07:27:09.147Z,86.17
2023-01-09T07:28:11.621Z,85.21
2023-01-09T07:29:13.316Z,84.18
2023-01-09T07:30:15.254Z,83.61
2023-01-09T07:31:16.892Z,83.20
2023-01-09T07:32:18.612Z,82.94
2023-01-09T07:33:20.187Z,82.43
2023-01-09T07:34:21.732Z,82.89
2023-01-09T07:35:23.280Z,83.01
2023-01-09T07:36:24.999Z,83.67
2023-01-09T07:37:26.586Z,83.20
2023-01-09T07:38:28.223Z,81.12
2023-01-09T07:39:29.898Z,82.04
2023-01-09T07:40:31.504Z,80.92
2023-01-09T07:41:33.052Z,80.38
2023-01-09T07:42:34.589Z,81.45
2023-01-09T07:43:38.006Z,80.47
2023-01-09T07:44:39.646Z,80.07
2023-01-09T07:45:41.206Z,78.49
2023-01-09T07:46:42.864Z,78.58
2023-01-09T07:47:44.441Z,78.41
2023-01-09T07:48:46.004Z,76.99
2023-01-09T07:49:47.605Z,76.78
2023-01-09T07:50:49.164Z,75.07
2023-01-09T07:51:50.781Z,75.80
2023-01-09T07:52:52.382Z,75.32
2023-01-09T07:53:54.182Z,75.71
2023-01-09T07:54:55.742Z,75.21
2023-01-09T07:55:57.360Z,75.57
2023-01-09T07:56:58.945Z,74.92
2023-01-09T07:58:00.467Z,75.81
2023-01-09T07:59:02.023Z,75.71
2023-01-09T08:00:06.842Z,75.10
2023-01-09T08:01:08.404Z,75.31
2023-01-09T08:02:10.223Z,75.17
2023-01-09T08:03:11.837Z,74.96
2023-01-09T08:04:13.511Z,75.80
2023-01-09T08:05:17.041Z,74.82
2023-01-09T08:06:18.663Z,74.21
2023-01-09T08:07:20.326Z,75.67
2023-01-09T08:08:22.807Z,74.79
2023-01-09T08:09:24.438Z,74.54
2023-01-09T08:10:26.396Z,75.38
2023-01-09T08:11:28.244Z,75.18
2023-01-09T08:12:29.844Z,74.54
2023-01-09T08:13:31.500Z,75.30
2023-01-09T08:14:33.139Z,77.01
2023-01-09T08:15:34.928Z,76.15
2023-01-09T08:16:36.658Z,75.28
2023-01-09T08:17:42.102Z,76.44
2023-01-09T08:18:44.269Z,76.54
2023-01-09T08:19:45.785Z,76.19
2023-01-09T08:20:50.497Z,76.25
2023-01-09T08:21:52.002Z,76.46
2023-01-09T08:22:54.397Z,76.90
2023-01-09T08:23:55.939Z,76.86
2023-01-09T08:24:57.559Z,76.67
2023-01-09T08:25:59.903Z,77.60
2023-01-09T08:27:01.505Z,77.58
2023-01-09T08:28:03.036Z,77.00
2023-01-09T08:29:04.688Z,77.11
2023-01-09T08:30:07.075Z,78.41
2023-01-09T08:31:08.705Z,79.17
2023-01-09T08:32:10.303Z,79.74
2023-01-09T08:33:11.838Z,78.51
2023-01-09T08:34:13.422Z,78.25
2023-01-09T08:35:14.997Z,77.39
2023-01-09T08:36:16.680Z,77.34
2023-01-09T08:37:18.261Z,76.45
2023-01-09T08:38:21.978Z,75.48
2023-01-09T08:39:23.500Z,76.68
2023-01-09T08:40:25.208Z,76.35
2023-01-09T08:41:45.310Z,75.21
2023-01-09T08:43:25.085Z,73.07
2023-01-09T08:44:45.137Z,73.01
2023-01-09T08:46:06.341Z,73.26
2023-01-09T08:47:08.313Z,73.76
2023-01-09T08:48:10.512Z,74.37
2023-01-09T08:49:12.063Z,73.73
2023-01-09T08:50:13.888Z,73.83
2023-01-09T08:51:15.513Z,74.19
2023-01-09T08:52:17.061Z,74.09
2023-01-09T08:53:18.623Z,72.55
2023-01-09T08:54:20.178Z,72.42
2023-01-09T08:55:21.793Z,72.25
2023-01-09T08:56:23.297Z,72.54
2023-01-09T08:57:25.196Z,72.63
2023-01-09T08:58:26.979Z,72.47
2023-01-09T08:59:28.635Z,72.91
2023-01-09T09:00:30.274Z,72.22
2023-01-09T09:01:32.462Z,71.98
2023-01-09T09:02:34.141Z,71.22
2023-01-09T09:03:35.735Z,71.11
2023-01-09T09:04:37.287Z,71.27
2023-01-09T09:05:38.824Z,71.65
2023-01-09T09:06:40.555Z,72.69
2023-01-09T09:07:42.903Z,73.45
2023-01-09T09:08:44.576Z,72.38
2023-01-09T09:09:46.128Z,73.20
2023-01-09T09:10:47.704Z,73.71
2023-01-09T09:11:49.264Z,71.25
2023-01-09T09:12:52.717Z,71.10
2023-01-09T09:13:54.351Z,71.17
2023-01-09T09:15:16.373Z,72.18
2023-01-09T09:16:17.974Z,71.65
2023-01-09T09:17:19.608Z,70.71
2023-01-09T09:18:21.227Z,70.68
2023-01-09T09:19:22.911Z,72.28
2023-01-09T09:20:26.911Z,73.19
2023-01-09T09:21:28.430Z,73.24
2023-01-09T09:22:30.924Z,72.65
2023-01-09T09:23:32.512Z,71.20
2023-01-09T09:24:34.102Z,71.40
2023-01-09T09:25:38.372Z,71.96
2023-01-09T09:26:40.109Z,73.34
2023-01-09T09:27:42.230Z,74.32
2023-01-09T09:28:43.802Z,74.49
2023-01-09T09:29:45.487Z,75.20
2023-01-09T09:30:47.095Z,76.65
2023-01-09T09:31:48.742Z,76.49
2023-01-09T09:32:50.351Z,75.39
2023-01-09T09:33:51.919Z,75.34
2023-01-09T09:34:53.625Z,74.14
2023-01-09T09:35:55.211Z,73.91
2023-01-09T09:36:56.809Z,73.57
2023-01-09T09:38:05.381Z,74.48
2023-01-09T09:39:08.442Z,75.18
2023-01-09T09:40:20.163Z,74.69
2023-01-09T09:41:58.780Z,75.58
2023-01-09T09:43:25.133Z,75.87
2023-01-09T09:44:53.963Z,75.43
2023-01-09T09:46:20.247Z,75.84
2023-01-09T09:47:43.312Z,75.98
2023-01-09T09:49:07.159Z,74.97
2023-01-09T09:50:40.159Z,74.82
2023-01-09T09:51:56.448Z,74.16
2023-01-09T09:53:09.944Z,73.51
2023-01-09T09:54:42.735Z,73.79
2023-01-09T09:55:48.304Z,73.52
2023-01-09T09:56:53.088Z,73.33
2023-01-09T09:57:56.477Z,73.61
2023-01-09T09:59:30.936Z,73.24
2023-01-09T10:00:33.196Z,73.37
2023-01-09T10:01:42.030Z,73.49
2023-01-09T10:02:52.202Z,73.41
2023-01-09T10:03:58.320Z,73.23
2023-01-09T10:05:22.224Z,73.42
2023-01-09T10:06:52.772Z,72.85
2023-01-09T10:08:01.315Z,72.67
2023-01-09T10:09:29.211Z,73.02
2023-01-09T10:10:44.063Z,73.87
2023-01-09T10:11:51.370Z,72.39
2023-01-09T10:12:58.855Z,72.63
2023-01-09T10:14:16.013Z,72.00
2023-01-09T10:15:36.557Z,72.29
2023-01-09T10:17:12.141Z,71.41
2023-01-09T10:18:32.939Z,69.77
2023-01-09T10:20:02.868Z,69.85
2023-01-09T10:21:23.915Z,69.23
2023-01-09T10:22:40.782Z,69.55
2023-01-09T10:24:15.806Z,68.56
2023-01-09T10:25:42.740Z,68.93
2023-01-09T10:26:50.968Z,68.65
2023-01-09T10:28:07.260Z,68.08
2023-01-09T10:29:19.895Z,69.18
2023-01-09T10:30:32.084Z,69.48
2023-01-09T10:32:15.136Z,68.91
2023-01-09T10:33:35.068Z,68.96
2023-01-09T10:34:57.801Z,67.30
2023-01-09T10:36:10.583Z,67.81
2023-01-09T10:37:15.675Z,68.56
2023-01-09T10:38:22.523Z,68.16
2023-01-09T10:39:41.131Z,69.14
2023-01-09T10:40:50.940Z,68.90
2023-01-09T10:42:03.137Z,68.63
2023-01-09T10:43:15.180Z,69.50
2023-01-09T10:44:24.320Z,69.67
2023-01-09T10:45:42.587Z,69.41
2023-01-09T10:46:53.160Z,69.08
2023-01-09T10:48:04.886Z,68.85
2023-01-09T10:49:13.581Z,69.44
2023-01-09T10:50:18.365Z,68.92
2023-01-09T10:51:24.168Z,69.70
2023-01-09T10:52:33.360Z,68.92
2023-01-09T10:53:39.430Z,68.70
2023-01-09T10:54:51.004Z,68.16
2023-01-09T10:55:56.098Z,67.81
2023-01-09T10:57:02.399Z,67.72
2023-01-09T10:58:12.114Z,68.85
2023-01-09T10:59:13.677Z,68.81
2023-01-09T11:00:18.782Z,67.84
2023-01-09T11:01:33.416Z,67.29
2023-01-09T11:02:36.099Z,68.52
2023-01-09T11:03:39.035Z,68.24
2023-01-09T11:04:40.733Z,68.75
2023-01-09T11:05:42.724Z,67.51
2023-01-09T11:06:49.700Z,67.44
2023-01-09T11:07:59.504Z,67.35
2023-01-09T11:09:01.967Z,65.98
2023-01-09T11:10:11.781Z,66.35
2023-01-09T11:11:31.874Z,66.71
2023-01-09T11:12:35.193Z,66.92
2023-01-09T11:13:41.180Z,65.52
2023-01-09T11:14:42.766Z,65.53
2023-01-09T11:15:45.240Z,66.13
2023-01-09T11:17:01.407Z,67.37
2023-01-09T11:18:26.210Z,64.98
2023-01-09T11:19:28.522Z,65.42
2023-01-09T11:20:30.393Z,65.21
2023-01-09T11:21:35.698Z,64.03
2023-01-09T11:22:51.269Z,64.95
2023-01-09T11:23:53.624Z,64.59
2023-01-09T11:25:03.027Z,64.62
2023-01-09T11:26:04.732Z,64.11
2023-01-09T11:27:23.588Z,63.26
2023-01-09T11:28:25.732Z,62.96
2023-01-09T11:29:27.580Z,62.50
2023-01-09T11:30:37.026Z,62.78
2023-01-09T11:31:42.321Z,62.86
2023-01-09T11:32:46.195Z,62.80
2023-01-09T11:33:50.253Z,62.59
2023-01-09T11:34:51.908Z,62.44
2023-01-09T11:36:14.480Z,61.74
2023-01-09T11:37:26.166Z,61.44
2023-01-09T11:38:28.294Z,61.61
2023-01-09T11:39:34.789Z,61.63
2023-01-09T11:41:12.005Z,62.20
2023-01-09T11:42:42.079Z,62.02
2023-01-09T11:43:48.139Z,62.25
2023-01-09T11:44:58.903Z,61.73
2023-01-09T11:46:06.621Z,61.89
2023-01-09T11:47:35.928Z,60.75
2023-01-09T11:48:59.433Z,61.71
2023-01-09T11:50:20.890Z,61.14
2023-01-09T11:51:33.851Z,61.43
2023-01-09T11:52:35.425Z,61.46
2023-01-09T11:54:12.804Z,61.73
2023-01-09T11:55:19.478Z,62.36
2023-01-09T11:56:21.224Z,62.28
2023-01-09T11:57:24.965Z,62.52
2023-01-09T11:58:34.037Z,62.77
2023-01-09T11:59:35.658Z,63.03
2023-01-09T12:01:14.388Z,63.40
2023-01-09T12:02:53.210Z,62.62
2023-01-09T12:04:18.034Z,63.57
2023-01-09T12:05:51.007Z,63.41
2023-01-09T12:07:16.599Z,64.22
2023-01-09T12:08:42.188Z,63.61
2023-01-09T12:09:50.098Z,64.20
2023-01-09T12:11:12.434Z,63.86
2023-01-09T12:12:41.703Z,62.66
2023-01-09T12:14:18.225Z,62.67
2023-01-09T12:15:19.819Z,63.03
2023-01-09T12:16:21.425Z,63.65
2023-01-09T12:17:35.589Z,64.19
2023-01-09T12:18:57.543Z,64.50
2023-01-09T12:20:14.206Z,64.54
2023-01-09T12:21:35.211Z,65.20
2023-01-09T12:22:58.636Z,64.36
2023-01-09T12:24:18.569Z,65.41
2023-01-09T12:25:44.504Z,64.82
2023-01-09T12:27:24.352Z,64.19
2023-01-09T12:28:54.802Z,64.11
2023-01-09T12:30:02.121Z,65.03
2023-01-09T12:31:43.284Z,65.67
2023-01-09T12:33:00.505Z,65.45
2023-01-09T12:34:27.639Z,65.19
2023-01-09T12:35:45.047Z,64.60
2023-01-09T12:37:23.717Z,65.16
2023-01-09T12:38:54.520Z,65.15
2023-01-09T12:40:41.403Z,65.80
2023-01-09T12:42:04.639Z,65.20
2023-01-09T12:43:12.186Z,66.09
2023-01-09T12:44:34.555Z,66.45
2023-01-09T12:45:40.232Z,65.21
2023-01-09T12:47:06.815Z,65.83
2023-01-09T12:48:44.996Z,66.11
2023-01-09T12:50:22.301Z,66.27
2023-01-09T12:51:41.980Z,66.19
2023-01-09T12:53:12.562Z,66.65
2023-01-09T12:54:32.626Z,66.86
2023-01-09T12:55:39.821Z,67.10
2023-01-09T12:56:48.806Z,66.96
2023-01-09T12:57:55.096Z,66.55
2023-01-09T12:59:30.783Z,67.15
2023-01-09T13:00:42.973Z,67.24
2023-01-09T13:01:50.051Z,67.14
2023-01-09T13:03:11.923Z,66.88
2023-01-09T13:04:23.261Z,67.79
2023-01-09T13:05:49.105Z,68.34
2023-01-09T13:06:58.429Z,68.20
2023-01-09T13:08:07.861Z,69.33
2023-01-09T13:09:26.257Z,68.31
2023-01-09T13:10:33.886Z,68.88
2023-01-09T13:11:41.663Z,69.69
2023-01-09T13:12:44.918Z,69.02
2023-01-09T13:13:48.699Z,69.92
2023-01-09T13:15:27.317Z,68.73
2023-01-09T13:16:42.429Z,69.23
2023-01-09T13:17:50.411Z,69.51
2023-01-09T13:19:03.596Z,68.75
2023-01-09T13:20:21.512Z,68.60
2023-01-09T13:21:23.372Z,68.42
2023-01-09T13:22:28.231Z,67.97
2023-01-09T13:24:03.979Z,67.48
2023-01-09T13:25:19.209Z,67.94
2023-01-09T13:26:32.783Z,67.47
2023-01-09T13:27:41.070Z,67.63
2023-01-09T13:28:47.224Z,67.87
2023-01-09T13:29:55.925Z,67.51
2023-01-09T13:31:28.261Z,67.44
2023-01-09T13:33:05.508Z,67.64
2023-01-09T13:34:21.888Z,67.93
2023-01-09T13:35:24.271Z,67.40
2023-01-09T13:36:29.109Z,67.33
2023-01-09T13:37:36.463Z,67.17
2023-01-09T13:38:38.796Z,67.86
2023-01-09T13:39:40.363Z,67.64
2023-01-09T13:40:41.980Z,66.23
2023-01-09T13:42:10.316Z,67.48
2023-01-09T13:43:14.718Z,67.28
2023-01-09T13:44:24.081Z,67.51
2023-01-09T13:45:28.413Z,67.48
2023-01-09T13:46:44.408Z,67.73
2023-01-09T13:47:46.498Z,67.07
2023-01-09T13:48:48.352Z,67.89
2023-01-09T13:49:59.309Z,67.50
2023-01-09T13:51:36.596Z,67.07
2023-01-09T13:52:40.724Z,67.25
2023-01-09T13:53:44.017Z,67.68
2023-01-09T13:54:51.240Z,67.88
2023-01-09T13:55:59.419Z,67.04
2023-01-09T13:57:19.505Z,67.48
2023-01-09T13:58:22.841Z,68.28
2023-01-09T13:59:28.622Z,68.87
2023-01-09T14:00:36.254Z,68.08
2023-01-09T14:01:42.596Z,68.20
2023-01-09T14:02:46.548Z,69.50
2023-01-09T14:04:10.558Z,70.05
2023-01-09T14:05:24.685Z,70.01
2023-01-09T14:06:28.210Z,70.10
2023-01-09T14:07:34.516Z,70.13
2023-01-09T14:08:36.615Z,70.51
2023-01-09T14:09:46.207Z,71.21
2023-01-09T14:10:51.668Z,71.58
2023-01-09T14:12:05.184Z,71.21
2023-01-09T14:13:14.236Z,71.74
2023-01-09T14:14:28.906Z,71.85
2023-01-09T14:15:33.502Z,72.38
2023-01-09T14:16:36.866Z,72.54
2023-01-09T14:17:38.840Z,72.07
2023-01-09T14:18:50.689Z,73.21
2023-01-09T14:19:58.213Z,72.98
2023-01-09T14:21:02.948Z,72.16
2023-01-09T14:22:06.541Z,73.27